sensor_id;sensor_type;location;lat;lon;timestamp;temperature;humidity
39045;DHT22;52192;52.002;5.956;2022-10-26T00:00:50;12.60;77.70
39045;DHT22;52192;52.002;5.956;2022-10-26T00:03:16;12.70;77.20
39045;DHT22;52192;52.002;5.956;2022-10-26T00:05:42;12.60;77.20
39045;DHT22;52192;52.002;5.956;2022-10-26T00:08:08;12.60;77.20
39045;DHT22;52192;52.002;5.956;2022-10-26T00:10:35;12.60;77.20
39045;DHT22;52192;52.002;5.956;2022-10-26T00:13:01;12.60;77.20
39045;DHT22;52192;52.002;5.956;2022-10-26T00:15:27;12.70;77.20
39045;DHT22;52192;52.002;5.956;2022-10-26T00:17:53;12.60;77.20
39045;DHT22;52192;52.002;5.956;2022-10-26T00:20:19;12.60;77.30
39045;DHT22;52192;52.002;5.956;2022-10-26T00:22:45;12.70;77.30
39045;DHT22;52192;52.002;5.956;2022-10-26T00:25:10;12.60;77.40
39045;DHT22;52192;52.002;5.956;2022-10-26T00:27:36;12.60;77.50
39045;DHT22;52192;52.002;5.956;2022-10-26T00:30:03;12.60;77.50
39045;DHT22;52192;52.002;5.956;2022-10-26T00:32:30;12.60;77.60
39045;DHT22;52192;52.002;5.956;2022-10-26T00:34:56;12.60;77.80
39045;DHT22;52192;52.002;5.956;2022-10-26T00:37:21;12.60;77.80
39045;DHT22;52192;52.002;5.956;2022-10-26T00:39:47;12.60;77.70
39045;DHT22;52192;52.002;5.956;2022-10-26T00:42:19;12.70;77.80
39045;DHT22;52192;52.002;5.956;2022-10-26T00:47:17;12.60;77.90
39045;DHT22;52192;52.002;5.956;2022-10-26T00:49:47;12.70;77.90
39045;DHT22;52192;52.002;5.956;2022-10-26T00:52:16;12.70;78.00
39045;DHT22;52192;52.002;5.956;2022-10-26T00:54:44;12.70;78.00
39045;DHT22;52192;52.002;5.956;2022-10-26T00:57:11;12.70;78.10
39045;DHT22;52192;52.002;5.956;2022-10-26T00:59:38;12.70;78.00
39045;DHT22;52192;52.002;5.956;2022-10-26T01:02:04;12.70;78.00
39045;DHT22;52192;52.002;5.956;2022-10-26T01:04:32;12.70;78.00
39045;DHT22;52192;52.002;5.956;2022-10-26T01:07:02;12.80;78.20
39045;DHT22;52192;52.002;5.956;2022-10-26T01:09:28;12.80;78.10
39045;DHT22;52192;52.002;5.956;2022-10-26T01:11:54;12.80;78.10
39045;DHT22;52192;52.002;5.956;2022-10-26T01:14:20;12.80;78.10
39045;DHT22;52192;52.002;5.956;2022-10-26T01:20:11;12.80;78.10
39045;DHT22;52192;52.002;5.956;2022-10-26T01:28:50;12.90;78.20
39045;DHT22;52192;52.002;5.956;2022-10-26T01:31:33;12.90;78.30
39045;DHT22;52192;52.002;5.956;2022-10-26T01:34:07;12.90;78.40
39045;DHT22;52192;52.002;5.956;2022-10-26T01:36:53;12.90;78.40
39045;DHT22;52192;52.002;5.956;2022-10-26T01:41:56;13.00;78.50
39045;DHT22;52192;52.002;5.956;2022-10-26T01:46:51;13.00;78.60
39045;DHT22;52192;52.002;5.956;2022-10-26T01:49:21;13.00;78.70
39045;DHT22;52192;52.002;5.956;2022-10-26T01:51:48;13.00;78.80
39045;DHT22;52192;52.002;5.956;2022-10-26T01:54:15;13.10;78.90
39045;DHT22;52192;52.002;5.956;2022-10-26T01:56:49;13.10;79.00
39045;DHT22;52192;52.002;5.956;2022-10-26T02:07:12;13.10;79.40
39045;DHT22;52192;52.002;5.956;2022-10-26T02:15:10;13.10;79.40
39045;DHT22;52192;52.002;5.956;2022-10-26T02:17:50;13.10;79.50
39045;DHT22;52192;52.002;5.956;2022-10-26T02:20:35;13.00;79.50
39045;DHT22;52192;52.002;5.956;2022-10-26T02:23:06;13.00;79.60
39045;DHT22;52192;52.002;5.956;2022-10-26T02:25:35;13.00;79.70
39045;DHT22;52192;52.002;5.956;2022-10-26T02:28:10;13.00;79.70
39045;DHT22;52192;52.002;5.956;2022-10-26T02:30:38;13.00;79.70
39045;DHT22;52192;52.002;5.956;2022-10-26T02:33:05;13.00;79.70
39045;DHT22;52192;52.002;5.956;2022-10-26T02:35:34;13.00;79.70
39045;DHT22;52192;52.002;5.956;2022-10-26T02:38:05;13.00;79.70
39045;DHT22;52192;52.002;5.956;2022-10-26T02:40:32;13.00;79.70
39045;DHT22;52192;52.002;5.956;2022-10-26T02:43:03;13.00;79.70
39045;DHT22;52192;52.002;5.956;2022-10-26T02:45:33;13.00;79.70
39045;DHT22;52192;52.002;5.956;2022-10-26T02:48:01;13.00;79.70
39045;DHT22;52192;52.002;5.956;2022-10-26T02:50:32;13.00;79.70
39045;DHT22;52192;52.002;5.956;2022-10-26T02:53:15;13.00;79.70
39045;DHT22;52192;52.002;5.956;2022-10-26T02:55:47;13.10;79.80
39045;DHT22;52192;52.002;5.956;2022-10-26T02:58:19;13.00;79.80
39045;DHT22;52192;52.002;5.956;2022-10-26T03:00:46;13.10;79.90
39045;DHT22;52192;52.002;5.956;2022-10-26T03:03:13;13.10;80.00
39045;DHT22;52192;52.002;5.956;2022-10-26T03:05:41;13.10;80.00
39045;DHT22;52192;52.002;5.956;2022-10-26T03:08:07;13.10;80.10
39045;DHT22;52192;52.002;5.956;2022-10-26T03:10:34;13.20;80.20
39045;DHT22;52192;52.002;5.956;2022-10-26T03:13:03;13.20;80.20
39045;DHT22;52192;52.002;5.956;2022-10-26T03:15:28;13.20;80.20
39045;DHT22;52192;52.002;5.956;2022-10-26T03:17:54;13.20;80.10
39045;DHT22;52192;52.002;5.956;2022-10-26T03:20:19;13.20;80.00
39045;DHT22;52192;52.002;5.956;2022-10-26T03:22:46;13.20;80.10
39045;DHT22;52192;52.002;5.956;2022-10-26T03:25:12;13.30;80.20
39045;DHT22;52192;52.002;5.956;2022-10-26T03:27:40;13.30;80.20
39045;DHT22;52192;52.002;5.956;2022-10-26T03:30:06;13.30;80.20
39045;DHT22;52192;52.002;5.956;2022-10-26T03:32:32;13.30;80.20
39045;DHT22;52192;52.002;5.956;2022-10-26T03:34:57;13.30;80.30
39045;DHT22;52192;52.002;5.956;2022-10-26T03:37:23;13.30;80.30
39045;DHT22;52192;52.002;5.956;2022-10-26T03:39:49;13.40;80.40
39045;DHT22;52192;52.002;5.956;2022-10-26T03:42:14;13.30;80.30
39045;DHT22;52192;52.002;5.956;2022-10-26T03:44:40;13.40;80.40
39045;DHT22;52192;52.002;5.956;2022-10-26T03:47:06;13.40;80.40
39045;DHT22;52192;52.002;5.956;2022-10-26T03:49:35;13.40;80.50
39045;DHT22;52192;52.002;5.956;2022-10-26T03:52:00;13.40;80.50
39045;DHT22;52192;52.002;5.956;2022-10-26T03:54:26;13.40;80.50
39045;DHT22;52192;52.002;5.956;2022-10-26T03:56:52;13.40;80.50
39045;DHT22;52192;52.002;5.956;2022-10-26T03:59:18;13.40;80.60
39045;DHT22;52192;52.002;5.956;2022-10-26T04:01:43;13.40;80.60
39045;DHT22;52192;52.002;5.956;2022-10-26T04:04:09;13.40;80.70
39045;DHT22;52192;52.002;5.956;2022-10-26T04:06:35;13.40;80.70
39045;DHT22;52192;52.002;5.956;2022-10-26T04:09:01;13.40;81.30
39045;DHT22;52192;52.002;5.956;2022-10-26T04:11:28;13.40;80.70
39045;DHT22;52192;52.002;5.956;2022-10-26T04:13:54;13.40;80.80
39045;DHT22;52192;52.002;5.956;2022-10-26T04:16:20;13.40;80.80
39045;DHT22;52192;52.002;5.956;2022-10-26T04:18:46;13.40;80.80
39045;DHT22;52192;52.002;5.956;2022-10-26T04:21:11;13.40;80.80
39045;DHT22;52192;52.002;5.956;2022-10-26T04:23:37;13.40;80.80
39045;DHT22;52192;52.002;5.956;2022-10-26T04:26:06;13.30;80.80
39045;DHT22;52192;52.002;5.956;2022-10-26T04:28:31;13.30;80.90
39045;DHT22;52192;52.002;5.956;2022-10-26T04:30:57;13.30;81.00
39045;DHT22;52192;52.002;5.956;2022-10-26T04:33:23;13.20;80.90
39045;DHT22;52192;52.002;5.956;2022-10-26T04:35:48;13.20;80.90
39045;DHT22;52192;52.002;5.956;2022-10-26T04:38:14;13.20;80.90
39045;DHT22;52192;52.002;5.956;2022-10-26T04:40:39;13.20;80.90
39045;DHT22;52192;52.002;5.956;2022-10-26T04:43:05;13.10;80.90
39045;DHT22;52192;52.002;5.956;2022-10-26T04:45:31;13.10;80.90
39045;DHT22;52192;52.002;5.956;2022-10-26T04:48:09;13.10;80.90
39045;DHT22;52192;52.002;5.956;2022-10-26T04:50:35;13.10;81.00
39045;DHT22;52192;52.002;5.956;2022-10-26T04:53:01;13.00;80.90
39045;DHT22;52192;52.002;5.956;2022-10-26T04:55:26;13.00;80.90
39045;DHT22;52192;52.002;5.956;2022-10-26T04:57:52;13.00;80.90
39045;DHT22;52192;52.002;5.956;2022-10-26T05:00:18;13.00;80.90
39045;DHT22;52192;52.002;5.956;2022-10-26T05:02:43;12.90;80.90
39045;DHT22;52192;52.002;5.956;2022-10-26T05:05:09;13.00;81.00
39045;DHT22;52192;52.002;5.956;2022-10-26T05:07:35;12.90;80.90
39045;DHT22;52192;52.002;5.956;2022-10-26T05:10:01;12.90;81.00
39045;DHT22;52192;52.002;5.956;2022-10-26T05:12:26;12.90;80.90
39045;DHT22;52192;52.002;5.956;2022-10-26T05:14:52;12.90;80.90
39045;DHT22;52192;52.002;5.956;2022-10-26T05:17:17;12.90;81.00
39045;DHT22;52192;52.002;5.956;2022-10-26T05:19:43;12.80;81.00
39045;DHT22;52192;52.002;5.956;2022-10-26T05:22:09;12.80;81.00
39045;DHT22;52192;52.002;5.956;2022-10-26T05:24:35;12.80;81.00
39045;DHT22;52192;52.002;5.956;2022-10-26T05:27:01;12.80;81.10
39045;DHT22;52192;52.002;5.956;2022-10-26T05:29:26;12.80;81.10
39045;DHT22;52192;52.002;5.956;2022-10-26T05:31:52;12.80;81.00
39045;DHT22;52192;52.002;5.956;2022-10-26T05:34:18;12.80;81.10
39045;DHT22;52192;52.002;5.956;2022-10-26T05:36:43;12.90;81.20
39045;DHT22;52192;52.002;5.956;2022-10-26T05:39:09;12.80;81.10
39045;DHT22;52192;52.002;5.956;2022-10-26T05:41:35;12.90;81.20
39045;DHT22;52192;52.002;5.956;2022-10-26T05:44:00;12.90;81.20
39045;DHT22;52192;52.002;5.956;2022-10-26T05:46:26;12.90;81.20
39045;DHT22;52192;52.002;5.956;2022-10-26T05:48:51;13.00;81.20
39045;DHT22;52192;52.002;5.956;2022-10-26T05:51:17;13.00;81.10
39045;DHT22;52192;52.002;5.956;2022-10-26T05:53:44;13.10;81.20
39045;DHT22;52192;52.002;5.956;2022-10-26T05:56:32;13.00;81.10
39045;DHT22;52192;52.002;5.956;2022-10-26T05:58:58;13.10;81.20
39045;DHT22;52192;52.002;5.956;2022-10-26T06:04:40;13.10;81.30
39045;DHT22;52192;52.002;5.956;2022-10-26T06:07:12;13.10;81.30
39045;DHT22;52192;52.002;5.956;2022-10-26T06:09:39;13.10;81.50
39045;DHT22;52192;52.002;5.956;2022-10-26T06:12:06;13.10;81.60
39045;DHT22;52192;52.002;5.956;2022-10-26T06:14:33;13.10;81.60
39045;DHT22;52192;52.002;5.956;2022-10-26T06:17:09;13.10;81.60
39045;DHT22;52192;52.002;5.956;2022-10-26T06:30:47;13.10;81.70
39045;DHT22;52192;52.002;5.956;2022-10-26T06:33:13;13.10;81.80
39045;DHT22;52192;52.002;5.956;2022-10-26T06:38:15;13.10;81.80
39045;DHT22;52192;52.002;5.956;2022-10-26T06:40:43;13.10;81.70
39045;DHT22;52192;52.002;5.956;2022-10-26T06:43:31;13.10;81.80
39045;DHT22;52192;52.002;5.956;2022-10-26T06:46:22;13.10;81.70
39045;DHT22;52192;52.002;5.956;2022-10-26T06:51:47;13.10;81.80
39045;DHT22;52192;52.002;5.956;2022-10-26T06:57:08;13.10;81.80
39045;DHT22;52192;52.002;5.956;2022-10-26T06:59:42;13.10;81.90
39045;DHT22;52192;52.002;5.956;2022-10-26T07:02:10;13.10;81.90
39045;DHT22;52192;52.002;5.956;2022-10-26T07:04:36;13.10;81.90
39045;DHT22;52192;52.002;5.956;2022-10-26T07:07:01;13.10;81.80
39045;DHT22;52192;52.002;5.956;2022-10-26T07:09:27;13.10;81.80
39045;DHT22;52192;52.002;5.956;2022-10-26T07:11:53;13.20;81.80
39045;DHT22;52192;52.002;5.956;2022-10-26T07:14:18;13.20;81.70
39045;DHT22;52192;52.002;5.956;2022-10-26T07:16:44;13.20;81.70
39045;DHT22;52192;52.002;5.956;2022-10-26T07:19:09;13.30;81.80
39045;DHT22;52192;52.002;5.956;2022-10-26T07:21:35;13.30;81.70
39045;DHT22;52192;52.002;5.956;2022-10-26T07:24:01;13.40;81.60
39045;DHT22;52192;52.002;5.956;2022-10-26T07:26:26;13.40;81.60
39045;DHT22;52192;52.002;5.956;2022-10-26T07:28:52;13.50;81.60
39045;DHT22;52192;52.002;5.956;2022-10-26T07:31:18;13.60;81.50
39045;DHT22;52192;52.002;5.956;2022-10-26T07:33:44;13.70;81.40
39045;DHT22;52192;52.002;5.956;2022-10-26T07:36:10;13.80;81.30
39045;DHT22;52192;52.002;5.956;2022-10-26T07:38:37;13.80;81.20
39045;DHT22;52192;52.002;5.956;2022-10-26T07:41:04;13.90;81.20
39045;DHT22;52192;52.002;5.956;2022-10-26T07:43:29;14.00;81.20
39045;DHT22;52192;52.002;5.956;2022-10-26T07:45:55;14.00;81.20
39045;DHT22;52192;52.002;5.956;2022-10-26T07:48:21;14.10;81.10
39045;DHT22;52192;52.002;5.956;2022-10-26T07:50:46;14.20;81.10
39045;DHT22;52192;52.002;5.956;2022-10-26T07:53:12;14.10;81.10
39045;DHT22;52192;52.002;5.956;2022-10-26T07:55:38;14.20;81.10
39045;DHT22;52192;52.002;5.956;2022-10-26T07:58:04;14.30;81.00
39045;DHT22;52192;52.002;5.956;2022-10-26T08:00:29;14.30;81.00
39045;DHT22;52192;52.002;5.956;2022-10-26T08:02:55;14.40;81.00
39045;DHT22;52192;52.002;5.956;2022-10-26T08:05:21;14.50;81.00
39045;DHT22;52192;52.002;5.956;2022-10-26T08:07:47;14.50;80.90
39045;DHT22;52192;52.002;5.956;2022-10-26T08:10:13;14.60;80.80
39045;DHT22;52192;52.002;5.956;2022-10-26T08:12:40;14.70;80.80
39045;DHT22;52192;52.002;5.956;2022-10-26T08:15:07;14.70;80.80
39045;DHT22;52192;52.002;5.956;2022-10-26T08:17:33;14.80;80.70
39045;DHT22;52192;52.002;5.956;2022-10-26T08:19:59;14.80;80.70
39045;DHT22;52192;52.002;5.956;2022-10-26T08:22:27;14.90;80.70
39045;DHT22;52192;52.002;5.956;2022-10-26T08:24:53;15.00;80.60
39045;DHT22;52192;52.002;5.956;2022-10-26T08:27:18;15.00;80.60
39045;DHT22;52192;52.002;5.956;2022-10-26T08:29:44;15.00;80.60
39045;DHT22;52192;52.002;5.956;2022-10-26T08:32:10;15.10;80.70
39045;DHT22;52192;52.002;5.956;2022-10-26T08:34:35;15.20;80.50
39045;DHT22;52192;52.002;5.956;2022-10-26T08:37:01;15.40;80.30
39045;DHT22;52192;52.002;5.956;2022-10-26T08:39:26;15.50;80.10
39045;DHT22;52192;52.002;5.956;2022-10-26T08:42:08;15.60;79.90
39045;DHT22;52192;52.002;5.956;2022-10-26T08:44:43;15.70;79.70
39045;DHT22;52192;52.002;5.956;2022-10-26T08:47:24;15.80;79.50
39045;DHT22;52192;52.002;5.956;2022-10-26T08:56:09;16.30;79.00
39045;DHT22;52192;52.002;5.956;2022-10-26T08:58:46;16.40;79.00
39045;DHT22;52192;52.002;5.956;2022-10-26T09:01:14;16.60;78.80
39045;DHT22;52192;52.002;5.956;2022-10-26T09:03:40;16.80;78.60
39045;DHT22;52192;52.002;5.956;2022-10-26T09:11:27;17.20;77.60
39045;DHT22;52192;52.002;5.956;2022-10-26T09:22:26;17.80;76.40
39045;DHT22;52192;52.002;5.956;2022-10-26T09:24:58;17.90;76.20
39045;DHT22;52192;52.002;5.956;2022-10-26T09:27:41;18.10;75.80
39045;DHT22;52192;52.002;5.956;2022-10-26T09:30:14;18.20;75.60
39045;DHT22;52192;52.002;5.956;2022-10-26T09:33:11;18.30;75.60
39045;DHT22;52192;52.002;5.956;2022-10-26T09:43:37;18.90;74.30
39045;DHT22;52192;52.002;5.956;2022-10-26T09:46:15;19.00;74.00
39045;DHT22;52192;52.002;5.956;2022-10-26T09:49:00;19.10;73.70
39045;DHT22;52192;52.002;5.956;2022-10-26T09:51:29;19.10;73.70
39045;DHT22;52192;52.002;5.956;2022-10-26T09:53:56;19.20;73.30
39045;DHT22;52192;52.002;5.956;2022-10-26T09:56:22;19.30;73.00
39045;DHT22;52192;52.002;5.956;2022-10-26T10:06:51;19.90;71.70
39045;DHT22;52192;52.002;5.956;2022-10-26T10:09:25;20.00;71.20
39045;DHT22;52192;52.002;5.956;2022-10-26T10:11:54;20.00;70.70
39045;DHT22;52192;52.002;5.956;2022-10-26T10:14:32;19.90;70.80
39045;DHT22;52192;52.002;5.956;2022-10-26T10:17:03;19.90;71.10
39045;DHT22;52192;52.002;5.956;2022-10-26T10:19:34;19.90;71.00
39045;DHT22;52192;52.002;5.956;2022-10-26T10:22:10;19.80;71.20
39045;DHT22;52192;52.002;5.956;2022-10-26T10:24:39;19.80;71.50
39045;DHT22;52192;52.002;5.956;2022-10-26T10:27:16;20.00;71.30
39045;DHT22;52192;52.002;5.956;2022-10-26T10:29:50;20.10;70.90
39045;DHT22;52192;52.002;5.956;2022-10-26T10:32:17;20.20;70.80
39045;DHT22;52192;52.002;5.956;2022-10-26T10:34:46;20.20;70.60
39045;DHT22;52192;52.002;5.956;2022-10-26T10:37:23;20.30;70.60
39045;DHT22;52192;52.002;5.956;2022-10-26T10:39:49;20.40;70.20
39045;DHT22;52192;52.002;5.956;2022-10-26T10:42:22;20.40;69.90
39045;DHT22;52192;52.002;5.956;2022-10-26T10:44:53;20.50;69.80
39045;DHT22;52192;52.002;5.956;2022-10-26T10:47:26;20.60;69.70
39045;DHT22;52192;52.002;5.956;2022-10-26T10:52:28;20.80;68.90
39045;DHT22;52192;52.002;5.956;2022-10-26T11:00:11;21.10;68.30
39045;DHT22;52192;52.002;5.956;2022-10-26T11:08:24;21.40;67.80
39045;DHT22;52192;52.002;5.956;2022-10-26T11:11:03;21.40;67.80
39045;DHT22;52192;52.002;5.956;2022-10-26T11:13:35;21.50;67.70
39045;DHT22;52192;52.002;5.956;2022-10-26T11:16:03;21.60;67.70
39045;DHT22;52192;52.002;5.956;2022-10-26T11:18:55;21.80;67.20
39045;DHT22;52192;52.002;5.956;2022-10-26T11:21:29;21.80;67.10
39045;DHT22;52192;52.002;5.956;2022-10-26T11:26:47;22.30;66.20
39045;DHT22;52192;52.002;5.956;2022-10-26T11:31:57;22.20;65.80
39045;DHT22;52192;52.002;5.956;2022-10-26T11:34:36;22.20;65.30
39045;DHT22;52192;52.002;5.956;2022-10-26T11:37:19;22.30;65.70
39045;DHT22;52192;52.002;5.956;2022-10-26T11:40:15;22.40;65.30
39045;DHT22;52192;52.002;5.956;2022-10-26T11:42:53;22.60;65.40
39045;DHT22;52192;52.002;5.956;2022-10-26T11:45:29;22.90;64.50
39045;DHT22;52192;52.002;5.956;2022-10-26T11:48:14;22.70;63.80
39045;DHT22;52192;52.002;5.956;2022-10-26T11:50:44;22.60;65.10
39045;DHT22;52192;52.002;5.956;2022-10-26T11:53:20;22.70;64.90
39045;DHT22;52192;52.002;5.956;2022-10-26T11:55:50;22.60;64.80
39045;DHT22;52192;52.002;5.956;2022-10-26T11:58:17;22.30;65.40
39045;DHT22;52192;52.002;5.956;2022-10-26T12:00:48;21.90;66.00
39045;DHT22;52192;52.002;5.956;2022-10-26T12:03:25;21.60;67.10
39045;DHT22;52192;52.002;5.956;2022-10-26T12:05:52;21.30;67.60
39045;DHT22;52192;52.002;5.956;2022-10-26T12:08:31;21.10;68.20
39045;DHT22;52192;52.002;5.956;2022-10-26T12:13:58;20.90;69.10
39045;DHT22;52192;52.002;5.956;2022-10-26T12:19:30;20.70;69.70
39045;DHT22;52192;52.002;5.956;2022-10-26T12:21:59;20.80;70.00
39045;DHT22;52192;52.002;5.956;2022-10-26T12:24:30;21.50;69.80
39045;DHT22;52192;52.002;5.956;2022-10-26T12:27:01;23.40;66.10
39045;DHT22;52192;52.002;5.956;2022-10-26T12:31:55;27.50;58.60
39045;DHT22;52192;52.002;5.956;2022-10-26T12:37:30;29.50;53.10
39045;DHT22;52192;52.002;5.956;2022-10-26T12:45:45;27.30;55.10
39045;DHT22;52192;52.002;5.956;2022-10-26T12:48:22;26.80;55.90
39045;DHT22;52192;52.002;5.956;2022-10-26T12:50:51;26.50;56.20
39045;DHT22;52192;52.002;5.956;2022-10-26T12:53:19;25.80;57.00
39045;DHT22;52192;52.002;5.956;2022-10-26T12:58:35;24.60;59.30
39045;DHT22;52192;52.002;5.956;2022-10-26T13:01:24;24.20;60.50
39045;DHT22;52192;52.002;5.956;2022-10-26T13:07:03;24.50;60.20
39045;DHT22;52192;52.002;5.956;2022-10-26T13:09:33;24.50;59.60
39045;DHT22;52192;52.002;5.956;2022-10-26T13:12:01;24.30;59.80
39045;DHT22;52192;52.002;5.956;2022-10-26T13:14:35;24.20;60.50
39045;DHT22;52192;52.002;5.956;2022-10-26T13:17:04;24.00;60.90
39045;DHT22;52192;52.002;5.956;2022-10-26T13:19:47;23.90;61.40
39045;DHT22;52192;52.002;5.956;2022-10-26T13:22:15;24.10;61.40
39045;DHT22;52192;52.002;5.956;2022-10-26T13:24:58;24.10;61.60
39045;DHT22;52192;52.002;5.956;2022-10-26T13:32:40;24.70;60.00
39045;DHT22;52192;52.002;5.956;2022-10-26T13:35:13;24.40;60.80
39045;DHT22;52192;52.002;5.956;2022-10-26T13:37:45;24.30;61.20
39045;DHT22;52192;52.002;5.956;2022-10-26T13:40:16;24.30;61.00
39045;DHT22;52192;52.002;5.956;2022-10-26T13:42:49;24.40;60.60
39045;DHT22;52192;52.002;5.956;2022-10-26T13:48:38;24.00;61.50
39045;DHT22;52192;52.002;5.956;2022-10-26T13:51:23;23.90;62.10
39045;DHT22;52192;52.002;5.956;2022-10-26T13:56:38;23.80;62.70
39045;DHT22;52192;52.002;5.956;2022-10-26T13:59:09;24.10;61.80
39045;DHT22;52192;52.002;5.956;2022-10-26T14:01:35;24.40;60.40
39045;DHT22;52192;52.002;5.956;2022-10-26T14:04:14;24.60;60.00
39045;DHT22;52192;52.002;5.956;2022-10-26T14:06:46;24.90;59.80
39045;DHT22;52192;52.002;5.956;2022-10-26T14:09:15;25.70;58.80
39045;DHT22;52192;52.002;5.956;2022-10-26T14:11:52;26.90;56.40
39045;DHT22;52192;52.002;5.956;2022-10-26T14:14:35;28.10;54.60
39045;DHT22;52192;52.002;5.956;2022-10-26T14:17:02;29.20;52.40
39045;DHT22;52192;52.002;5.956;2022-10-26T14:19:33;29.50;51.60
39045;DHT22;52192;52.002;5.956;2022-10-26T14:22:00;29.30;51.30
39045;DHT22;52192;52.002;5.956;2022-10-26T14:24:28;28.70;51.60
39045;DHT22;52192;52.002;5.956;2022-10-26T14:26:54;28.20;52.70
39045;DHT22;52192;52.002;5.956;2022-10-26T14:29:22;28.00;53.10
39045;DHT22;52192;52.002;5.956;2022-10-26T14:31:48;27.70;53.20
39045;DHT22;52192;52.002;5.956;2022-10-26T14:34:14;27.60;53.30
39045;DHT22;52192;52.002;5.956;2022-10-26T14:36:55;27.50;53.60
39045;DHT22;52192;52.002;5.956;2022-10-26T14:39:43;27.50;53.80
39045;DHT22;52192;52.002;5.956;2022-10-26T14:44:40;27.40;53.60
39045;DHT22;52192;52.002;5.956;2022-10-26T14:47:13;27.00;54.30
39045;DHT22;52192;52.002;5.956;2022-10-26T14:49:44;26.60;54.90
39045;DHT22;52192;52.002;5.956;2022-10-26T14:52:15;26.20;55.50
39045;DHT22;52192;52.002;5.956;2022-10-26T14:55:16;26.00;55.90
39045;DHT22;52192;52.002;5.956;2022-10-26T14:57:44;26.10;56.00
39045;DHT22;52192;52.002;5.956;2022-10-26T15:00:24;26.00;55.60
39045;DHT22;52192;52.002;5.956;2022-10-26T15:02:54;25.70;56.10
39045;DHT22;52192;52.002;5.956;2022-10-26T15:07:50;25.20;57.40
39045;DHT22;52192;52.002;5.956;2022-10-26T15:15:52;24.10;59.70
39045;DHT22;52192;52.002;5.956;2022-10-26T15:18:22;23.80;60.50
39045;DHT22;52192;52.002;5.956;2022-10-26T15:20:50;23.50;61.00
39045;DHT22;52192;52.002;5.956;2022-10-26T15:23:17;23.20;61.70
39045;DHT22;52192;52.002;5.956;2022-10-26T15:25:53;23.00;62.30
39045;DHT22;52192;52.002;5.956;2022-10-26T15:31:01;22.70;63.00
39045;DHT22;52192;52.002;5.956;2022-10-26T15:33:27;22.60;63.40
39045;DHT22;52192;52.002;5.956;2022-10-26T15:36:14;22.40;63.70
39045;DHT22;52192;52.002;5.956;2022-10-26T15:38:41;22.30;64.00
39045;DHT22;52192;52.002;5.956;2022-10-26T15:41:22;22.10;64.30
39045;DHT22;52192;52.002;5.956;2022-10-26T15:43:52;22.00;64.40
39045;DHT22;52192;52.002;5.956;2022-10-26T15:46:19;21.90;64.70
39045;DHT22;52192;52.002;5.956;2022-10-26T15:48:57;21.90;64.80
39045;DHT22;52192;52.002;5.956;2022-10-26T15:51:24;21.80;64.80
39045;DHT22;52192;52.002;5.956;2022-10-26T15:53:50;21.80;64.90
39045;DHT22;52192;52.002;5.956;2022-10-26T15:56:22;21.70;65.00
39045;DHT22;52192;52.002;5.956;2022-10-26T15:58:48;21.70;65.30
39045;DHT22;52192;52.002;5.956;2022-10-26T16:01:22;21.60;65.40
39045;DHT22;52192;52.002;5.956;2022-10-26T16:03:48;21.50;65.70
39045;DHT22;52192;52.002;5.956;2022-10-26T16:08:50;21.40;66.00
39045;DHT22;52192;52.002;5.956;2022-10-26T16:11:16;21.30;66.30
39045;DHT22;52192;52.002;5.956;2022-10-26T16:13:42;21.30;66.30
39045;DHT22;52192;52.002;5.956;2022-10-26T16:16:14;21.20;66.50
39045;DHT22;52192;52.002;5.956;2022-10-26T16:18:41;21.20;66.60
39045;DHT22;52192;52.002;5.956;2022-10-26T16:21:14;21.10;66.60
39045;DHT22;52192;52.002;5.956;2022-10-26T16:23:41;21.10;66.80
39045;DHT22;52192;52.002;5.956;2022-10-26T16:26:07;21.10;66.90
39045;DHT22;52192;52.002;5.956;2022-10-26T16:28:33;21.00;66.90
39045;DHT22;52192;52.002;5.956;2022-10-26T16:31:07;21.00;66.80
39045;DHT22;52192;52.002;5.956;2022-10-26T16:33:33;21.00;66.90
39045;DHT22;52192;52.002;5.956;2022-10-26T16:36:00;21.00;67.00
39045;DHT22;52192;52.002;5.956;2022-10-26T16:38:26;21.00;67.00
39045;DHT22;52192;52.002;5.956;2022-10-26T16:43:33;20.90;67.20
39045;DHT22;52192;52.002;5.956;2022-10-26T16:45:59;20.80;67.40
39045;DHT22;52192;52.002;5.956;2022-10-26T16:48:27;20.70;67.50
39045;DHT22;52192;52.002;5.956;2022-10-26T16:50:52;20.70;67.70
39045;DHT22;52192;52.002;5.956;2022-10-26T16:53:18;20.70;67.80
39045;DHT22;52192;52.002;5.956;2022-10-26T16:55:44;20.60;67.80
39045;DHT22;52192;52.002;5.956;2022-10-26T16:58:09;20.60;67.90
39045;DHT22;52192;52.002;5.956;2022-10-26T17:00:36;20.60;67.90
39045;DHT22;52192;52.002;5.956;2022-10-26T17:03:02;20.60;67.80
39045;DHT22;52192;52.002;5.956;2022-10-26T17:05:28;20.70;67.90
39045;DHT22;52192;52.002;5.956;2022-10-26T17:07:54;20.60;67.90
39045;DHT22;52192;52.002;5.956;2022-10-26T17:10:21;20.60;68.00
39045;DHT22;52192;52.002;5.956;2022-10-26T17:12:47;20.50;68.10
39045;DHT22;52192;52.002;5.956;2022-10-26T17:15:12;20.50;68.30
39045;DHT22;52192;52.002;5.956;2022-10-26T17:17:38;20.40;68.30
39045;DHT22;52192;52.002;5.956;2022-10-26T17:20:04;20.30;68.50
39045;DHT22;52192;52.002;5.956;2022-10-26T17:22:30;20.30;68.70
39045;DHT22;52192;52.002;5.956;2022-10-26T17:24:56;20.20;68.80
39045;DHT22;52192;52.002;5.956;2022-10-26T17:27:21;20.10;68.90
39045;DHT22;52192;52.002;5.956;2022-10-26T17:29:47;20.00;69.20
39045;DHT22;52192;52.002;5.956;2022-10-26T17:32:16;20.00;69.30
39045;DHT22;52192;52.002;5.956;2022-10-26T17:34:42;19.90;69.30
39045;DHT22;52192;52.002;5.956;2022-10-26T17:37:08;19.90;70.20
39045;DHT22;52192;52.002;5.956;2022-10-26T17:39:33;19.80;69.70
39045;DHT22;52192;52.002;5.956;2022-10-26T17:41:59;19.70;69.80
39045;DHT22;52192;52.002;5.956;2022-10-26T17:44:25;19.60;69.90
39045;DHT22;52192;52.002;5.956;2022-10-26T17:46:50;19.60;70.00
39045;DHT22;52192;52.002;5.956;2022-10-26T17:49:16;19.50;70.10
39045;DHT22;52192;52.002;5.956;2022-10-26T17:51:43;19.40;70.30
39045;DHT22;52192;52.002;5.956;2022-10-26T17:54:08;19.30;70.50
39045;DHT22;52192;52.002;5.956;2022-10-26T17:56:34;19.20;70.50
39045;DHT22;52192;52.002;5.956;2022-10-26T17:59:03;19.20;70.70
39045;DHT22;52192;52.002;5.956;2022-10-26T18:01:30;19.20;70.70
39045;DHT22;52192;52.002;5.956;2022-10-26T18:03:56;19.20;70.70
39045;DHT22;52192;52.002;5.956;2022-10-26T18:06:22;19.10;70.80
39045;DHT22;52192;52.002;5.956;2022-10-26T18:08:49;19.10;70.90
39045;DHT22;52192;52.002;5.956;2022-10-26T18:11:17;19.00;71.00
39045;DHT22;52192;52.002;5.956;2022-10-26T18:13:43;19.00;71.10
39045;DHT22;52192;52.002;5.956;2022-10-26T18:16:12;19.00;71.20
39045;DHT22;52192;52.002;5.956;2022-10-26T18:18:38;18.90;71.20
39045;DHT22;52192;52.002;5.956;2022-10-26T18:21:08;18.90;71.20
39045;DHT22;52192;52.002;5.956;2022-10-26T18:23:34;18.90;71.20